Time;durP1;ratioP1;P1;durP2;ratioP2;P2;SDS_P1;SDS_P2;PMS_P1;PMS_P2;Temp;Humidity;BMP_temperature;BMP_pressure;BME280_temperature;BME280_humidity;BME280_pressure;Samples;Min_cycle;Max_cycle;Signal;HPM_P1;HPM_P2
2021/03/31 00:00:36;;;;;;;33.65;25.80;;;;;;;9.77;79.65;101744.86;1705852;81;26162;-77
2021/03/31 00:03:11;;;;;;;30.97;25.55;;;;;;;9.71;79.67;101742.81;1724578;81;25763;-75
2021/03/31 00:05:38;;;;;;;34.83;26.80;;;;;;;9.65;79.77;101744.24;1727896;81;26295;-75
2021/03/31 00:08:06;;;;;;;35.08;25.95;;;;;;;9.61;79.65;101747.38;1752943;81;25932;-74
2021/03/31 00:10:50;;;;;;;35.10;27.35;;;;;;;9.59;79.78;101752.88;1702362;81;27699;-76
2021/03/31 00:13:23;;;;;;;44.20;32.40;;;;;;;9.59;80.10;101744.01;1704831;82;25873;-75
2021/03/31 00:15:52;;;;;;;45.30;31.23;;;;;;;9.59;80.69;101744.86;1710620;81;25907;-76
2021/03/31 00:18:22;;;;;;;38.80;30.43;;;;;;;9.57;80.76;101746.84;1743924;81;26417;-75
2021/03/31 00:20:51;;;;;;;47.48;33.83;;;;;;;9.56;81.02;101745.67;1675159;83;26435;-75
2021/03/31 00:23:23;;;;;;;44.90;32.15;;;;;;;9.59;81.21;101742.67;1699528;81;27616;-76
2021/03/31 00:25:53;;;;;;;47.13;31.77;;;;;;;9.56;81.21;101740.32;1700269;82;25822;-76
2021/03/31 00:28:20;;;;;;;49.48;34.00;;;;;;;9.54;81.37;101744.47;1737949;82;25868;-76
2021/03/31 00:30:48;;;;;;;48.28;32.08;;;;;;;9.51;81.61;101735.91;1722523;81;25822;-75
2021/03/31 00:33:17;;;;;;;49.67;33.67;;;;;;;9.48;81.70;101735.72;1674284;83;25867;-75
2021/03/31 00:35:44;;;;;;;50.40;35.48;;;;;;;9.48;81.82;101730.86;1728550;82;27357;-76
2021/03/31 00:38:12;;;;;;;51.23;34.88;;;;;;;9.48;81.92;101737.55;1723170;82;25841;-76
2021/03/31 00:40:50;;;;;;;46.58;33.70;;;;;;;9.48;81.92;101726.84;1685638;83;25824;-75
2021/03/31 00:43:18;;;;;;;47.73;34.15;;;;;;;9.48;81.97;101725.51;1685950;83;26896;-75
2021/03/31 00:45:45;;;;;;;45.00;34.08;;;;;;;9.48;82.08;101729.03;1707524;81;26429;-75
2021/03/31 00:48:14;;;;;;;46.55;32.95;;;;;;;9.50;82.12;101719.50;1738906;81;27596;-76
2021/03/31 00:50:47;;;;;;;49.00;34.45;;;;;;;9.48;82.10;101723.69;1689337;82;25919;-75
2021/03/31 00:53:18;;;;;;;52.58;33.98;;;;;;;9.46;82.17;101718.98;1712489;82;25833;-75
2021/03/31 00:55:46;;;;;;;47.75;33.08;;;;;;;9.49;82.33;101720.03;1711904;82;26492;-75
2021/03/31 00:58:15;;;;;;;51.02;33.75;;;;;;;9.49;82.52;101712.50;1710768;82;25898;-76
2021/03/31 01:00:42;;;;;;;51.08;33.48;;;;;;;9.45;82.36;101713.80;1688668;82;27593;-75
2021/03/31 01:03:10;;;;;;;44.98;33.02;;;;;;;9.45;82.50;101711.13;1696461;82;25933;-76
2021/03/31 01:05:37;;;;;;;47.85;32.40;;;;;;;9.43;82.54;101708.58;1711528;82;26208;-75
2021/03/31 01:08:05;;;;;;;48.23;33.00;;;;;;;9.42;82.54;101710.08;1737328;82;25724;-75
2021/03/31 01:10:36;;;;;;;49.27;32.95;;;;;;;9.42;82.55;101707.40;1688611;82;25881;-76
2021/03/31 01:13:50;;;;;;;51.60;33.83;;;;;;;9.41;82.67;101711.08;1736383;82;27525;-76
2021/03/31 01:16:50;;;;;;;51.63;33.42;;;;;;;9.38;82.78;101708.22;1695465;82;26025;-75
2021/03/31 01:20:00;;;;;;;48.30;32.33;;;;;;;9.37;82.86;101711.05;1737009;82;25788;-76
2021/03/31 01:22:52;;;;;;;48.28;33.67;;;;;;;9.34;82.87;101713.00;1714702;81;25754;-76
2021/03/31 01:25:44;;;;;;;48.68;33.90;;;;;;;9.31;82.94;101707.98;1710772;82;25742;-75
2021/03/31 01:28:35;;;;;;;52.80;34.53;;;;;;;9.31;82.73;101706.64;1711457;82;27324;-76
2021/03/31 01:31:30;;;;;;;46.42;33.35;;;;;;;9.27;82.74;101713.77;1721081;83;26153;-75
2021/03/31 01:34:30;;;;;;;46.15;33.38;;;;;;;9.28;82.83;101709.61;1721681;82;25811;-75
2021/03/31 01:37:01;;;;;;;47.15;34.50;;;;;;;9.29;82.85;101708.63;1727442;81;25883;-76
2021/03/31 01:39:30;;;;;;;49.63;33.88;;;;;;;9.30;82.97;101709.48;1720383;81;26442;-77
2021/03/31 01:42:00;;;;;;;54.65;34.15;;;;;;;9.29;82.99;101706.44;1696246;82;28482;-76
2021/03/31 01:44:27;;;;;;;52.00;33.10;;;;;;;9.30;82.88;101704.95;1700324;83;25807;-76
2021/03/31 01:46:57;;;;;;;49.42;34.63;;;;;;;9.28;82.98;101708.27;1745013;81;26384;-77
2021/03/31 01:49:27;;;;;;;50.85;33.23;;;;;;;9.27;83.04;101702.59;1735356;82;26128;-76
2021/03/31 01:52:04;;;;;;;54.05;34.65;;;;;;;9.26;82.92;101702.72;1735515;81;26140;-77
2021/03/31 01:54:32;;;;;;;53.35;34.38;;;;;;;9.21;82.89;101693.00;1789298;80;27507;-76
2021/03/31 01:57:01;;;;;;;54.83;35.43;;;;;;;9.19;82.98;101701.66;1789373;79;25855;-76
2021/03/31 01:59:29;;;;;;;55.83;35.85;;;;;;;9.17;83.04;101695.63;1787229;80;26310;-76
2021/03/31 02:01:59;;;;;;;49.90;33.73;;;;;;;9.14;83.20;101690.09;1781167;80;26382;-76
2021/03/31 02:04:27;;;;;;;53.58;34.60;;;;;;;9.14;83.35;101690.09;1733801;80;26287;-76
2021/03/31 02:06:55;;;;;;;50.23;34.95;;;;;;;9.12;83.29;101692.07;1735307;80;27520;-76
2021/03/31 02:09:24;;;;;;;50.23;34.60;;;;;;;9.12;83.33;101680.53;1787174;80;25851;-76
2021/03/31 02:11:52;;;;;;;54.58;35.15;;;;;;;9.14;83.38;101686.08;1787746;80;25754;-77
2021/03/31 02:14:21;;;;;;;54.70;35.90;;;;;;;9.15;83.31;101685.59;1735320;80;26454;-76
2021/03/31 02:16:49;;;;;;;56.53;35.88;;;;;;;9.13;83.45;101689.72;1787417;80;25873;-76
2021/03/31 02:19:20;;;;;;;52.73;34.25;;;;;;;9.10;83.33;101688.70;1787054;80;27329;-76
2021/03/31 02:21:49;;;;;;;50.10;33.02;;;;;;;9.09;83.26;101691.02;1787494;80;25751;-75
2021/03/31 02:24:20;;;;;;;55.95;36.00;;;;;;;9.09;83.29;101689.69;1729983;80;25967;-76
2021/03/31 02:26:49;;;;;;;51.75;36.25;;;;;;;9.10;83.46;101690.05;1789400;80;25845;-76
2021/03/31 02:29:16;;;;;;;52.95;36.60;;;;;;;9.08;83.41;101688.02;1782774;80;25857;-75
2021/03/31 02:31:45;;;;;;;54.67;36.65;;;;;;;9.07;83.49;101690.82;1787381;80;26798;-75
2021/03/31 02:34:15;;;;;;;53.10;35.75;;;;;;;9.08;83.54;101688.52;1734274;80;26214;-75
2021/03/31 02:36:44;;;;;;;49.48;32.53;;;;;;;9.09;83.39;101684.83;1787871;79;25754;-76
2021/03/31 02:39:14;;;;;;;51.65;33.23;;;;;;;9.08;83.34;101688.02;1753922;80;25747;-76
2021/03/31 02:41:49;;;;;;;53.45;34.35;;;;;;;9.09;83.30;101682.16;1760787;80;25827;-76
2021/03/31 02:44:19;;;;;;;51.63;33.98;;;;;;;9.08;83.32;101684.02;1788625;80;27628;-77
2021/03/31 02:46:57;;;;;;;52.33;34.98;;;;;;;9.11;83.34;101682.36;1779661;79;26044;-76
2021/03/31 02:49:27;;;;;;;49.70;33.88;;;;;;;9.06;83.34;101686.48;1767639;80;25782;-76
2021/03/31 02:51:57;;;;;;;53.75;33.67;;;;;;;9.03;83.18;101684.10;1754154;81;27522;-77
2021/03/31 02:54:26;;;;;;;51.28;33.92;;;;;;;9.01;83.03;101676.73;1650208;83;25738;-76
2021/03/31 02:56:54;;;;;;;51.42;33.80;;;;;;;8.98;82.97;101684.55;1698577;81;26077;-75
2021/03/31 02:59:22;;;;;;;52.48;34.38;;;;;;;9.00;83.20;101687.09;1699270;81;26467;-76
2021/03/31 03:01:49;;;;;;;53.78;31.87;;;;;;;9.00;83.07;101683.90;1723786;83;25838;-76
2021/03/31 03:04:17;;;;;;;51.65;32.13;;;;;;;8.99;82.89;101680.05;1688304;82;27619;-76
2021/03/31 03:06:47;;;;;;;51.75;32.90;;;;;;;8.99;82.88;101680.05;1718721;81;25925;-76
2021/03/31 03:09:16;;;;;;;49.77;32.50;;;;;;;8.97;82.72;101680.21;1704758;81;25767;-77
2021/03/31 03:11:46;;;;;;;51.30;31.97;;;;;;;8.96;82.52;101677.17;1726331;81;26605;-76
2021/03/31 03:14:14;;;;;;;46.00;29.52;;;;;;;8.96;82.52;101675.03;1685992;83;26354;-76
2021/03/31 03:16:41;;;;;;;49.20;30.27;;;;;;;8.92;82.14;101674.95;1705310;81;27541;-76
2021/03/31 03:19:08;;;;;;;66.57;31.90;;;;;;;8.84;81.87;101678.38;1701533;83;25807;-76
2021/03/31 03:21:38;;;;;;;47.30;29.32;;;;;;;8.78;82.22;101684.33;1728060;81;25797;-76
2021/03/31 03:24:10;;;;;;;51.63;30.30;;;;;;;8.76;82.47;101675.62;1700557;81;26542;-76
2021/03/31 03:26:38;;;;;;;42.38;25.88;;;;;;;8.74;82.33;101676.27;1723633;81;25819;-76
2021/03/31 03:29:07;;;;;;;46.15;28.73;;;;;;;8.68;81.88;101673.35;1698409;83;27424;-76
2021/03/31 03:31:36;;;;;;;49.40;32.13;;;;;;;8.65;81.79;101674.48;1732157;81;26231;-76
2021/03/31 03:34:09;;;;;;;45.10;25.82;;;;;;;8.62;81.75;101676.10;1685121;83;25818;-76
2021/03/31 03:36:42;;;;;;;38.78;25.97;;;;;;;8.57;81.52;101666.86;1708248;81;25720;-76
2021/03/31 03:39:10;;;;;;;47.08;29.92;;;;;;;8.51;81.53;101661.63;1702977;83;25981;-75
2021/03/31 03:41:38;;;;;;;53.90;30.77;;;;;;;8.48;81.69;101657.42;1728033;81;28398;-76
2021/03/31 03:44:06;;;;;;;49.30;30.00;;;;;;;8.46;81.44;101657.22;1704548;83;26268;-76
2021/03/31 03:46:36;;;;;;;51.05;30.40;;;;;;;8.41;81.23;101658.98;1704357;82;26300;-76
2021/03/31 03:49:05;;;;;;;56.00;30.47;;;;;;;8.36;81.10;101657.77;1728173;82;25838;-75
2021/03/31 03:51:34;;;;;;;50.65;30.45;;;;;;;8.30;81.19;101656.98;1728098;82;26057;-77
2021/03/31 03:54:10;;;;;;;69.37;28.52;;;;;;;8.27;81.17;101655.48;1677650;82;27560;-76
2021/03/31 03:56:37;;;;;;;36.15;25.02;;;;;;;8.21;80.89;101649.33;1731423;81;26187;-76
2021/03/31 03:59:27;;;;;;;77.82;24.67;;;;;;;8.16;80.86;101649.43;1692384;83;25890;-76
2021/03/31 04:01:54;;;;;;;38.98;24.02;;;;;;;8.13;80.90;101654.56;1738918;81;25737;-75
2021/03/31 04:04:23;;;;;;;36.28;22.22;;;;;;;8.08;80.89;101654.17;1702111;81;26099;-74
2021/03/31 04:06:50;;;;;;;109.95;22.52;;;;;;;8.05;80.79;101656.27;1722137;81;26877;-76
2021/03/31 04:09:18;;;;;;;40.43;20.25;;;;;;;8.03;80.92;101654.24;1699599;82;25902;-75
2021/03/31 04:11:47;;;;;;;30.85;19.85;;;;;;;7.97;80.83;101659.67;1733787;81;26448;-75
2021/03/31 04:14:14;;;;;;;32.15;19.57;;;;;;;7.93;80.61;101658.77;1704959;82;26124;-75
2021/03/31 04:16:44;;;;;;;43.00;22.37;;;;;;;7.89;80.70;101663.53;1714683;81;25818;-75
2021/03/31 04:19:15;;;;;;;39.10;21.33;;;;;;;7.87;80.59;101670.84;1704370;81;27551;-75
2021/03/31 04:21:42;;;;;;;40.43;20.70;;;;;;;7.85;80.47;101652.80;1733222;81;26369;-75
2021/03/31 04:24:13;;;;;;;37.25;22.45;;;;;;;7.82;80.59;101662.45;1687081;83;25863;-76
2021/03/31 04:26:41;;;;;;;37.70;22.10;;;;;;;7.80;80.56;101666.56;1665892;83;26446;-75
2021/03/31 04:29:11;;;;;;;33.05;20.25;;;;;;;7.79;80.60;101664.05;1661403;84;25945;-76
2021/03/31 04:31:40;;;;;;;40.55;21.85;;;;;;;7.82;80.80;101668.27;1677161;84;27551;-75
2021/03/31 04:34:08;;;;;;;33.50;21.62;;;;;;;7.83;80.91;101667.30;1613936;84;26246;-75
2021/03/31 04:36:36;;;;;;;35.35;21.05;;;;;;;7.83;81.19;101665.44;1696234;84;25735;-75
2021/03/31 04:39:06;;;;;;;31.30;20.48;;;;;;;7.86;81.36;101671.84;1673641;83;25906;-75
2021/03/31 04:41:34;;;;;;;44.70;22.95;;;;;;;7.86;81.34;101669.66;1706649;83;26081;-76
2021/03/31 04:44:03;;;;;;;38.42;19.50;;;;;;;7.82;81.01;101670.45;1654136;84;27551;-75
2021/03/31 04:46:31;;;;;;;72.70;23.77;;;;;;;7.80;81.00;101675.08;1647870;84;26004;-75
2021/03/31 04:48:58;;;;;;;56.90;19.87;;;;;;;7.75;80.59;101670.66;1636450;86;26682;-76
2021/03/31 04:51:25;;;;;;;41.63;18.77;;;;;;;7.68;80.64;101676.20;1650272;86;25831;-75
2021/03/31 04:53:53;;;;;;;70.52;21.73;;;;;;;7.64;80.51;101678.80;1625544;86;25788;-75
2021/03/31 04:56:20;;;;;;;45.83;23.85;;;;;;;7.59;80.61;101675.22;1658372;84;28578;-75
2021/03/31 04:58:47;;;;;;;45.43;25.15;;;;;;;7.56;80.96;101672.86;1649354;85;25821;-75
2021/03/31 05:01:14;;;;;;;44.93;24.98;;;;;;;7.58;81.35;101673.56;1646249;85;25861;-75
2021/03/31 05:03:42;;;;;;;62.88;25.37;;;;;;;7.58;81.37;101669.56;1628886;84;25847;-74
2021/03/31 05:06:09;;;;;;;50.33;23.60;;;;;;;7.58;81.45;101675.38;1644624;85;26084;-76
2021/03/31 05:08:36;;;;;;;45.43;24.23;;;;;;;7.56;81.44;101672.86;1625373;84;27437;-75
2021/03/31 05:11:04;;;;;;;50.03;25.05;;;;;;;7.58;81.56;101676.70;1643399;85;25751;-75
2021/03/31 05:13:31;;;;;;;67.30;25.75;;;;;;;7.60;81.70;101674.73;1622407;84;25893;-75
2021/03/31 05:15:59;;;;;;;37.83;25.48;;;;;;;7.65;81.85;101681.84;1639100;84;25919;-75
2021/03/31 05:18:26;;;;;;;41.98;22.02;;;;;;;7.69;81.96;101672.56;1671585;84;26415;-75
2021/03/31 05:20:53;;;;;;;36.33;23.67;;;;;;;7.72;81.99;101673.11;1669408;84;28114;-78
2021/03/31 05:23:21;;;;;;;37.75;24.32;;;;;;;7.77;82.04;101672.69;1623687;84;26513;-78
2021/03/31 05:25:48;;;;;;;40.73;27.02;;;;;;;7.83;82.28;101680.63;1643254;84;26180;-77
2021/03/31 05:28:15;;;;;;;48.98;31.20;;;;;;;7.88;82.45;101672.53;1675087;84;26479;-78
2021/03/31 05:30:42;;;;;;;51.48;34.25;;;;;;;7.95;82.92;101673.66;1669658;84;25769;-78
2021/03/31 05:33:10;;;;;;;38.90;26.33;;;;;;;8.03;83.28;101673.77;1609534;84;28438;-78
2021/03/31 05:35:37;;;;;;;33.85;24.67;;;;;;;8.08;83.22;101675.52;1645454;84;25817;-78
2021/03/31 05:38:04;;;;;;;30.62;23.05;;;;;;;8.12;83.12;101676.91;1670920;84;26487;-78
2021/03/31 05:40:32;;;;;;;35.98;22.87;;;;;;;8.14;82.96;101680.77;1663612;84;25810;-78
2021/03/31 05:43:00;;;;;;;31.75;23.50;;;;;;;8.18;82.97;101675.48;1579918;84;26453;-78
2021/03/31 05:45:29;;;;;;;45.67;24.27;;;;;;;8.21;83.00;101675.20;1630675;85;27543;-77
2021/03/31 05:47:58;;;;;;;47.45;22.25;;;;;;;8.26;83.26;101680.47;1666559;85;25714;-75
2021/03/31 05:50:26;;;;;;;32.85;22.42;;;;;;;8.26;83.21;101680.47;1671441;85;25915;-75
2021/03/31 05:52:54;;;;;;;33.53;23.05;;;;;;;8.24;83.12;101679.74;1624013;85;25787;-76
2021/03/31 05:55:21;;;;;;;31.80;23.18;;;;;;;8.29;83.32;101678.01;1606716;85;25799;-75
2021/03/31 05:57:48;;;;;;;40.45;28.92;;;;;;;8.36;83.52;101675.93;1647560;85;28252;-76
2021/03/31 06:00:20;;;;;;;51.58;33.02;;;;;;;8.51;84.14;101678.98;1665068;85;25863;-75
2021/03/31 06:02:49;;;;;;;59.63;37.08;;;;;;;8.65;84.63;101670.48;1657276;84;25869;-75
2021/03/31 06:05:18;;;;;;;57.48;37.88;;;;;;;8.78;84.92;101664.30;1637136;85;26115;-75
2021/03/31 06:07:48;;;;;;;59.83;41.48;;;;;;;8.91;85.35;101667.45;1638160;85;26383;-75
2021/03/31 06:10:20;;;;;;;47.65;33.02;;;;;;;9.06;85.71;101670.45;1661097;85;28443;-75
2021/03/31 06:12:55;;;;;;;44.30;31.70;;;;;;;9.19;86.06;101681.13;1614681;84;25743;-75
2021/03/31 06:15:38;;;;;;;45.95;31.82;;;;;;;9.28;85.94;101676.19;1636618;84;26487;-75
2021/03/31 06:18:15;;;;;;;47.35;32.50;;;;;;;9.39;86.21;101680.46;1631997;85;25819;-75
2021/03/31 06:21:00;;;;;;;46.37;32.78;;;;;;;9.47;86.30;101678.38;1631549;85;25899;-75
2021/03/31 06:26:34;;;;;;;51.35;36.00;;;;;;;9.62;86.23;101674.17;1655362;84;26187;-75
2021/03/31 06:29:09;;;;;;;57.62;39.25;;;;;;;9.72;86.40;101665.05;1640490;84;25893;-76
2021/03/31 06:31:44;;;;;;;64.45;42.20;;;;;;;9.84;86.52;101666.97;1687496;84;26132;-76
2021/03/31 06:34:16;;;;;;;65.28;43.92;;;;;;;9.95;86.55;101669.39;1684025;84;26224;-75
2021/03/31 06:36:51;;;;;;;67.90;45.63;;;;;;;10.03;86.58;101668.11;1622536;84;28427;-75
2021/03/31 06:39:28;;;;;;;70.67;47.20;;;;;;;10.13;86.79;101665.38;1678120;84;26574;-75
2021/03/31 06:42:15;;;;;;;68.40;48.00;;;;;;;10.24;86.90;101665.95;1650658;84;25934;-75
2021/03/31 06:50:14;;;;;;;62.90;44.58;;;;;;;10.73;87.17;101653.63;1830795;77;26123;-76
2021/03/31 06:53:00;;;;;;;66.92;44.60;;;;;;;10.78;87.00;101649.94;1801342;78;26470;-75
2021/03/31 06:55:30;;;;;;;65.72;45.08;;;;;;;10.88;86.89;101659.52;1793352;79;27533;-76
2021/03/31 06:58:00;;;;;;;67.95;46.08;;;;;;;10.97;86.87;101660.91;1743162;79;26005;-76
2021/03/31 07:00:31;;;;;;;74.58;46.58;;;;;;;11.03;86.68;101654.88;1736337;79;26544;-75
2021/03/31 07:03:04;;;;;;;70.57;45.10;;;;;;;11.11;86.58;101657.58;1765575;79;25791;-76
2021/03/31 07:05:40;;;;;;;67.30;45.12;;;;;;;11.18;86.60;101656.77;1798067;79;26298;-76
2021/03/31 07:08:15;;;;;;;66.95;47.58;;;;;;;11.27;86.72;101654.94;1765695;79;27607;-75
2021/03/31 07:10:54;;;;;;;65.32;45.33;;;;;;;11.38;86.65;101655.94;1738691;79;25512;-75
2021/03/31 07:13:34;;;;;;;66.47;45.85;;;;;;;11.46;86.36;101650.59;1753418;80;26050;-75
2021/03/31 07:16:05;;;;;;;70.70;47.27;;;;;;;11.52;86.29;101650.77;1781764;79;26186;-74
2021/03/31 07:18:34;;;;;;;66.67;45.73;;;;;;;11.55;86.00;101654.44;1779443;79;25793;-75
2021/03/31 07:21:02;;;;;;;72.05;49.98;;;;;;;11.62;86.06;101650.59;1732007;79;27546;-75
2021/03/31 07:23:30;;;;;;;74.67;49.42;;;;;;;11.68;86.00;101651.28;1757991;80;26013;-75
2021/03/31 07:25:58;;;;;;;72.87;48.45;;;;;;;11.77;86.03;101654.80;1745497;80;25818;-74
2021/03/31 07:28:29;;;;;;;70.62;48.50;;;;;;;11.85;86.11;101650.77;1727759;80;26383;-75
2021/03/31 07:30:59;;;;;;;69.97;48.17;;;;;;;11.95;85.95;101647.41;1721084;80;25854;-75
2021/03/31 07:33:31;;;;;;;71.15;50.45;;;;;;;12.02;85.77;101641.67;1748657;80;27553;-76
2021/03/31 07:36:01;;;;;;;76.60;51.25;;;;;;;12.09;85.85;101638.16;1743880;81;25775;-77
2021/03/31 07:38:29;;;;;;;76.47;53.63;;;;;;;12.20;86.17;101640.48;1702276;80;25779;-78
2021/03/31 07:40:59;;;;;;;82.55;55.75;;;;;;;12.28;86.04;101642.29;1731809;80;25780;-78
2021/03/31 07:43:38;;;;;;;78.95;55.00;;;;;;;12.36;85.81;101640.91;1749922;80;25797;-77
2021/03/31 07:46:09;;;;;;;75.00;53.20;;;;;;;12.45;85.77;101645.26;1775407;80;27538;-78
2021/03/31 07:48:39;;;;;;;74.67;52.75;;;;;;;12.55;85.76;101641.03;1717721;80;26126;-78
2021/03/31 07:51:29;;;;;;;72.78;50.55;;;;;;;12.65;85.64;101641.66;1750855;80;26405;-77
2021/03/31 07:54:00;;;;;;;76.53;49.40;;;;;;;12.74;85.39;101640.61;1782717;80;25966;-78
2021/03/31 07:56:36;;;;;;;72.80;50.58;;;;;;;12.85;85.48;101644.27;1787151;80;26139;-76
2021/03/31 07:59:16;;;;;;;70.60;50.17;;;;;;;12.96;85.27;101637.11;1756658;80;27524;-79
2021/03/31 08:01:51;;;;;;;66.10;46.45;;;;;;;13.06;85.32;101640.47;1733334;80;25727;-77
2021/03/31 08:04:24;;;;;;;68.87;47.35;;;;;;;13.20;85.20;101641.54;1754292;80;26334;-80
2021/03/31 08:06:59;;;;;;;63.25;46.13;;;;;;;13.27;84.63;101639.32;1753135;80;25788;-76
2021/03/31 08:09:30;;;;;;;64.53;46.68;;;;;;;13.32;83.87;101640.13;1734772;80;26071;-81
2021/03/31 08:12:06;;;;;;;68.30;45.08;;;;;;;13.34;83.88;101640.78;1733336;80;28371;-80
2021/03/31 08:14:38;;;;;;;67.27;45.23;;;;;;;13.39;83.88;101637.88;1753623;80;25870;-77
2021/03/31 08:17:09;;;;;;;62.43;43.10;;;;;;;13.44;83.87;101639.53;1761476;80;26408;-80
2021/03/31 08:19:41;;;;;;;65.83;45.17;;;;;;;13.48;83.68;101642.69;1705916;80;25804;-77
2021/03/31 08:22:29;;;;;;;64.07;43.40;;;;;;;13.52;83.68;101636.77;1756210;80;25746;-75
2021/03/31 08:25:00;;;;;;;60.33;41.42;;;;;;;13.59;83.48;101640.92;1753775;80;28316;-75
2021/03/31 08:27:28;;;;;;;57.45;41.23;;;;;;;13.66;83.31;101641.88;1755492;80;25806;-75
2021/03/31 08:29:59;;;;;;;58.28;41.90;;;;;;;13.79;83.57;101640.22;1760044;80;25977;-75
2021/03/31 08:32:28;;;;;;;57.80;40.75;;;;;;;13.90;83.39;101639.78;1725993;80;25799;-75
2021/03/31 08:34:55;;;;;;;59.40;42.70;;;;;;;14.01;83.55;101637.69;1747893;80;25824;-75
2021/03/31 08:37:30;;;;;;;64.45;41.42;;;;;;;14.13;83.35;101636.20;1781087;80;27519;-76
2021/03/31 08:40:02;;;;;;;64.22;40.20;;;;;;;14.19;82.64;101639.00;1746513;80;25808;-75
2021/03/31 08:42:30;;;;;;;67.08;44.83;;;;;;;14.24;82.44;101635.22;1725386;80;25736;-76
2021/03/31 08:45:03;;;;;;;58.33;42.75;;;;;;;14.33;82.75;101635.48;1749708;80;25716;-76
2021/03/31 08:47:34;;;;;;;64.50;44.55;;;;;;;14.39;82.36;101633.39;1780288;80;25732;-76
2021/03/31 08:50:08;;;;;;;57.78;39.85;;;;;;;14.46;82.04;101630.79;1704592;80;27529;-75
2021/03/31 08:52:38;;;;;;;59.33;38.40;;;;;;;14.53;81.68;101625.83;1723317;80;26453;-75
2021/03/31 08:55:12;;;;;;;50.33;37.48;;;;;;;14.60;81.72;101625.41;1682359;80;25459;-75
2021/03/31 08:57:40;;;;;;;55.23;39.18;;;;;;;14.60;81.24;101616.48;1745112;80;25813;-75
2021/03/31 09:00:09;;;;;;;58.90;37.30;;;;;;;14.74;81.13;101633.13;1721541;80;25860;-75
2021/03/31 09:02:43;;;;;;;45.73;32.40;;;;;;;14.86;81.01;101633.49;1706717;80;26821;-75
2021/03/31 09:05:14;;;;;;;52.10;34.45;;;;;;;14.97;80.39;101627.61;1721133;80;26035;-76
2021/03/31 09:07:42;;;;;;;46.98;32.03;;;;;;;15.07;80.04;101634.38;1772763;80;25751;-75
2021/03/31 09:10:13;;;;;;;47.80;33.40;;;;;;;15.14;79.72;101630.40;1721364;80;25859;-75
2021/03/31 09:12:43;;;;;;;48.60;33.90;;;;;;;15.21;79.50;101623.18;1725827;80;26206;-75
2021/03/31 09:15:10;;;;;;;42.60;32.67;;;;;;;15.27;79.11;101625.95;1747120;80;27327;-75
2021/03/31 09:17:40;;;;;;;47.80;34.83;;;;;;;15.31;78.52;101619.13;1721014;80;25850;-75
2021/03/31 09:20:11;;;;;;;42.78;31.97;;;;;;;15.30;78.54;101615.28;1725010;80;25884;-75
2021/03/31 09:22:39;;;;;;;35.38;30.10;;;;;;;15.32;78.25;101610.53;1748239;80;26449;-75
2021/03/31 09:25:12;;;;;;;44.23;29.57;;;;;;;15.38;77.37;101608.41;1720240;80;25857;-75
2021/03/31 09:27:39;;;;;;;43.05;28.85;;;;;;;15.46;77.78;101608.83;1749232;80;27577;-75
2021/03/31 09:30:12;;;;;;;41.18;29.32;;;;;;;15.54;77.95;101605.48;1699725;80;25650;-75
2021/03/31 09:32:51;;;;;;;33.70;27.13;;;;;;;15.61;77.57;101603.65;1726504;80;25849;-75
2021/03/31 09:35:17;;;;;;;36.53;24.18;;;;;;;15.63;76.92;101595.38;1749672;80;26049;-75
2021/03/31 09:37:49;;;;;;;38.13;27.25;;;;;;;15.69;76.58;101593.23;1773579;80;25807;-75
2021/03/31 09:40:22;;;;;;;33.58;25.17;;;;;;;15.75;76.17;101587.89;1747988;80;27499;-75
2021/03/31 09:42:59;;;;;;;40.83;25.92;;;;;;;15.80;76.35;101583.25;1776290;80;26088;-75
2021/03/31 09:45:34;;;;;;;39.20;27.17;;;;;;;15.88;76.36;101583.09;1753221;80;26442;-75
2021/03/31 09:48:04;;;;;;;36.20;25.48;;;;;;;15.94;76.04;101585.00;1747236;80;25782;-75
2021/03/31 09:50:35;;;;;;;35.52;25.68;;;;;;;15.97;75.94;101577.86;1709104;80;25751;-76
2021/03/31 09:53:06;;;;;;;37.80;26.10;;;;;;;16.05;76.01;101581.75;1724847;80;28505;-75
2021/03/31 09:55:39;;;;;;;37.35;24.45;;;;;;;16.12;75.70;101571.82;1747241;80;25769;-76
2021/03/31 09:58:07;;;;;;;32.05;24.10;;;;;;;16.21;75.89;101577.36;1774330;80;25330;-75
2021/03/31 10:00:38;;;;;;;35.65;24.15;;;;;;;16.29;75.66;101566.91;1697372;80;25828;-76
2021/03/31 10:03:06;;;;;;;34.80;23.80;;;;;;;16.34;74.87;101570.67;1749187;80;25834;-75
2021/03/31 10:05:35;;;;;;;36.63;24.35;;;;;;;16.41;74.39;101568.84;1742500;80;27396;-75
2021/03/31 10:08:10;;;;;;;33.95;23.02;;;;;;;16.46;74.31;101562.83;1774180;80;25808;-75
2021/03/31 10:10:52;;;;;;;31.30;21.87;;;;;;;16.52;74.28;101564.25;1704096;80;25917;-75
2021/03/31 10:13:24;;;;;;;31.17;20.80;;;;;;;16.59;74.23;101556.16;1747564;80;25956;-75
2021/03/31 10:16:00;;;;;;;31.20;19.20;;;;;;;16.68;73.52;101561.71;1747248;80;25886;-75
2021/03/31 10:18:32;;;;;;;26.60;17.02;;;;;;;16.78;74.07;101564.34;1773150;80;28512;-76
2021/03/31 10:21:04;;;;;;;26.02;17.45;;;;;;;16.87;71.28;101556.33;1699194;80;25940;-75
2021/03/31 10:23:38;;;;;;;27.37;18.27;;;;;;;16.90;71.61;101553.73;1721253;80;25883;-76
2021/03/31 10:26:31;;;;;;;22.13;14.87;;;;;;;16.93;72.07;101548.77;1746782;80;26071;-75
2021/03/31 10:29:04;;;;;;;17.57;12.60;;;;;;;17.03;71.76;101547.52;1753600;80;26016;-75
2021/03/31 10:31:39;;;;;;;18.73;12.93;;;;;;;17.16;70.61;101545.67;1778051;80;27529;-76
2021/03/31 10:34:10;;;;;;;23.75;12.95;;;;;;;17.27;69.99;101542.86;1745706;80;25705;-75
2021/03/31 10:48:34;;;;;;;21.02;13.25;;;;;;;17.51;69.41;101521.97;1779302;80;25846;-75
2021/03/31 10:56:31;;;;;;;22.87;11.80;;;;;;;17.71;68.47;101520.89;1740488;80;25791;-76
2021/03/31 10:58:59;;;;;;;18.32;11.25;;;;;;;17.71;68.29;101518.18;1740813;80;27706;-76
2021/03/31 11:01:28;;;;;;;16.90;11.45;;;;;;;17.75;67.59;101510.45;1717989;80;25730;-76
2021/03/31 11:03:55;;;;;;;20.00;11.53;;;;;;;17.78;67.21;101507.33;1722799;80;26593;-75
2021/03/31 11:06:24;;;;;;;21.65;11.53;;;;;;;17.83;67.59;101499.92;1740408;80;25727;-76
2021/03/31 11:08:52;;;;;;;14.83;10.90;;;;;;;17.92;67.22;101495.40;1748033;80;25812;-76
2021/03/31 11:11:20;;;;;;;17.90;11.60;;;;;;;18.01;66.55;101496.00;1686642;80;28318;-76
2021/03/31 11:13:47;;;;;;;20.75;11.08;;;;;;;18.05;67.11;101496.72;1729674;80;25885;-76
2021/03/31 11:16:15;;;;;;;24.30;12.90;;;;;;;18.10;66.65;101492.85;1713515;80;25757;-76
2021/03/31 11:18:56;;;;;;;;;;;;;;;18.19;65.84;101492.09;1757178;80;26173;-75
2021/03/31 11:26:37;;;;;;;13.05;10.08;;;;;;;18.42;65.82;101487.81;1740530;80;25963;-76
2021/03/31 11:29:04;;;;;;;19.07;11.20;;;;;;;18.48;65.74;101481.55;1691124;82;25820;-76
2021/03/31 11:31:32;;;;;;;12.88;9.48;;;;;;;18.54;65.56;101475.76;1710142;80;25791;-76
2021/03/31 11:34:00;;;;;;;14.63;10.03;;;;;;;18.58;65.23;101478.38;1732536;82;25808;-75
2021/03/31 11:36:28;;;;;;;21.33;10.20;;;;;;;18.60;64.63;101470.84;1720424;80;28295;-75
2021/03/31 11:38:56;;;;;;;13.30;9.75;;;;;;;18.63;62.86;101469.03;1745409;79;26250;-75
2021/03/31 11:41:25;;;;;;;23.15;11.95;;;;;;;18.67;63.69;101471.61;1715135;80;26118;-75
2021/03/31 11:43:54;;;;;;;20.08;12.07;;;;;;;18.66;63.67;101466.41;1756368;80;26394;-76
2021/03/31 11:46:21;;;;;;;19.82;10.25;;;;;;;18.64;64.44;101462.57;1700316;82;25380;-75
2021/03/31 11:48:50;;;;;;;15.90;9.80;;;;;;;18.67;62.79;101462.66;1661192;80;28842;-76
2021/03/31 11:51:18;;;;;;;19.20;11.80;;;;;;;18.68;61.88;101454.30;1665586;82;25968;-76
2021/03/31 11:53:45;;;;;;;20.40;12.00;;;;;;;18.69;62.90;101451.87;1670106;83;25814;-75
2021/03/31 11:56:15;;;;;;;13.93;10.05;;;;;;;18.73;62.85;101455.00;1669908;84;25452;-75
2021/03/31 11:58:43;;;;;;;15.03;10.00;;;;;;;18.77;63.06;101444.00;1705590;83;26288;-76
2021/03/31 12:01:10;;;;;;;19.60;10.10;;;;;;;18.82;62.78;101449.06;1683250;83;28433;-76
2021/03/31 12:03:39;;;;;;;15.55;8.60;;;;;;;18.85;61.93;101445.09;1677120;84;25965;-76